Time;durP1;ratioP1;P1;durP2;ratioP2;P2;SDS_P1;SDS_P2;PMS_P1;PMS_P2;Temp;Humidity;BMP_temperature;BMP_pressure;BME280_temperature;BME280_humidity;BME280_pressure;Samples;Min_cycle;Max_cycle;Signal;HPM_P1;HPM_P2
2022/04/11 04:01:59;;;;;;;7.50;6.70;;;;;;;2.70;79.37;100890.31;6576254;27;20325;-88
2022/04/11 04:05:04;;;;;;;7.85;6.75;;;;;;;2.63;79.79;100903.22;6612187;27;35426;-90
2022/04/11 04:08:31;;;;;;;6.72;5.68;;;;;;;2.59;80.23;100895.56;6565221;27;20026;-87
2022/04/11 04:11:34;;;;;;;9.07;5.72;;;;;;;2.64;79.84;100907.56;6568050;26;32607;-89
2022/04/11 04:14:39;;;;;;;8.70;6.20;;;;;;;2.68;80.06;100900.19;6579689;27;34840;-88
2022/04/11 04:17:42;;;;;;;6.93;6.05;;;;;;;2.71;80.45;100899.97;6560241;27;33329;-88
2022/04/11 04:20:45;;;;;;;6.95;5.95;;;;;;;2.72;80.42;100907.84;6580407;27;34164;-88
2022/04/11 04:23:49;;;;;;;7.22;5.53;;;;;;;2.70;81.03;100907.09;6560626;27;32502;-88
2022/04/11 04:26:53;;;;;;;8.48;6.28;;;;;;;2.83;79.83;100920.31;6559759;27;32676;-88
2022/04/11 04:29:57;;;;;;;6.90;5.87;;;;;;;2.80;80.17;100920.53;6560279;27;32594;-88
2022/04/11 04:33:00;;;;;;;8.48;6.65;;;;;;;2.86;79.76;100922.75;6560289;27;32381;-88
2022/04/11 04:36:08;;;;;;;7.22;5.93;;;;;;;2.95;79.01;100926.53;6565737;27;32779;-88
2022/04/11 04:39:11;;;;;;;8.55;6.30;;;;;;;3.02;78.48;100935.75;6582227;27;34030;-88
2022/04/11 04:42:21;;;;;;;7.97;6.18;;;;;;;3.01;78.80;100941.19;6560416;27;32756;-88
2022/04/11 04:45:25;;;;;;;8.52;6.15;;;;;;;3.08;78.25;100950.41;6580487;27;33782;-88
2022/04/11 04:48:28;;;;;;;7.78;5.55;;;;;;;3.15;78.53;100949.81;6559473;27;32815;-88
2022/04/11 04:51:31;;;;;;;7.72;6.10;;;;;;;3.26;77.91;100948.16;6580018;27;34440;-88
2022/04/11 04:54:34;;;;;;;8.05;5.90;;;;;;;3.36;77.48;100951.81;6579929;27;34470;-88
2022/04/11 04:57:37;;;;;;;8.18;6.10;;;;;;;3.41;77.15;100952.31;6580247;27;34450;-88
2022/04/11 05:00:41;;;;;;;7.47;5.80;;;;;;;3.56;76.41;100960.94;6580017;27;34074;-88
2022/04/11 05:03:43;;;;;;;6.53;5.70;;;;;;;3.70;75.81;100962.53;6550841;27;33267;-88
2022/04/11 05:06:47;;;;;;;6.78;5.70;;;;;;;3.80;75.60;100961.72;6535831;27;32804;-88
2022/04/11 05:09:50;;;;;;;7.40;5.68;;;;;;;4.05;74.61;100970.44;6533784;27;33617;-88
2022/04/11 05:12:53;;;;;;;7.15;5.18;;;;;;;4.17;74.23;100971.28;6554692;27;34427;-88
2022/04/11 05:15:56;;;;;;;6.72;5.70;;;;;;;4.19;73.25;100959.53;6556818;27;34023;-88
2022/04/11 05:19:00;;;;;;;7.32;5.47;;;;;;;4.24;72.96;100970.66;6553548;27;34452;-88
2022/04/11 05:22:03;;;;;;;5.95;5.35;;;;;;;4.33;72.58;100966.41;6533451;27;33949;-88
2022/04/11 05:25:08;;;;;;;7.15;5.28;;;;;;;4.45;72.31;100972.59;6537691;27;34050;-88
2022/04/11 05:28:10;;;;;;;8.55;6.12;;;;;;;4.42;72.23;100971.00;6538050;27;32744;-88
2022/04/11 05:31:19;;;;;;;9.45;5.97;;;;;;;4.43;71.49;100971.84;6559845;27;34797;-88
2022/04/11 05:34:22;;;;;;;9.23;5.40;;;;;;;4.64;70.72;100971.94;6534584;27;34471;-88
2022/04/11 05:37:25;;;;;;;7.68;5.60;;;;;;;4.68;70.77;100965.34;6595622;27;35006;-88
2022/04/11 05:40:28;;;;;;;8.50;5.55;;;;;;;4.78;69.82;100961.81;6587708;27;33772;-88
2022/04/11 05:43:31;;;;;;;8.57;5.75;;;;;;;4.99;69.28;100966.38;6585532;27;32305;-88
2022/04/11 05:46:34;;;;;;;7.57;5.55;;;;;;;5.12;68.99;100968.84;6579627;27;216352;-88
2022/04/11 05:49:42;;;;;;;11.15;6.00;;;;;;;5.26;67.81;100967.69;6587680;27;33929;-88
2022/04/11 05:53:01;;;;;;;9.20;5.60;;;;;;;5.50;66.45;100968.31;6559168;26;33249;31
2022/04/11 05:56:04;;;;;;;6.37;5.25;;;;;;;5.58;66.26;100968.47;6498226;27;32614;-88
2022/04/11 05:59:21;;;;;;;6.85;5.45;;;;;;;5.72;66.79;100978.00;6489717;27;32299;-89
2022/04/11 06:02:25;;;;;;;8.35;5.35;;;;;;;5.83;66.09;100979.75;6607773;26;33498;-89
2022/04/11 06:05:28;;;;;;;7.85;5.87;;;;;;;5.75;65.74;100972.37;6607264;26;33884;-88
2022/04/11 06:08:31;;;;;;;7.43;5.20;;;;;;;5.97;65.67;100970.53;6610262;27;34329;-89
2022/04/11 06:11:34;;;;;;;5.80;5.20;;;;;;;5.99;64.39;100974.78;6580825;26;32417;-88
2022/04/11 06:14:37;;;;;;;7.85;5.40;;;;;;;6.13;64.83;100970.91;6601539;26;33765;-88
2022/04/11 06:17:40;;;;;;;5.85;4.75;;;;;;;6.18;64.04;100974.03;6600835;26;34483;-87
2022/04/11 06:20:46;;;;;;;10.93;5.70;;;;;;;6.26;64.23;100978.69;6606790;26;33785;-89
2022/04/11 06:23:49;;;;;;;6.82;4.93;;;;;;;6.49;63.48;100979.34;6615214;26;34216;-89
2022/04/11 06:26:52;;;;;;;10.35;5.20;;;;;;;6.68;62.57;100973.19;6588677;27;34024;-89
2022/04/11 06:29:57;;;;;;;6.87;5.43;;;;;;;6.62;62.15;100969.25;6606049;27;34750;-89
2022/04/11 06:33:00;;;;;;;6.57;5.15;;;;;;;6.58;61.67;100973.16;6608109;27;34081;-89
2022/04/11 06:36:04;;;;;;;7.03;5.10;;;;;;;6.97;60.62;100962.53;6608231;27;35738;-89
2022/04/11 06:39:07;;;;;;;7.28;5.28;;;;;;;7.02;60.00;100962.97;6587523;27;33803;-89
2022/04/11 06:42:10;;;;;;;6.15;5.35;;;;;;;7.17;60.23;100966.91;6587792;27;32851;-89
2022/04/11 06:45:14;;;;;;;5.18;4.68;;;;;;;7.13;59.64;100962.81;6607389;27;34116;-88
2022/04/11 06:48:18;;;;;;;7.65;5.07;;;;;;;7.11;59.49;100966.59;6606332;27;33888;-88
2022/04/11 06:51:21;;;;;;;8.23;5.05;;;;;;;7.19;59.37;100959.56;6586033;27;33493;-88
2022/04/11 06:54:24;;;;;;;10.35;5.18;;;;;;;7.65;58.51;100970.50;6587335;27;32660;-89
2022/04/11 06:57:27;;;;;;;6.80;5.30;;;;;;;7.69;57.86;100969.22;6593069;27;32843;-89
2022/04/11 07:00:30;;;;;;;8.70;5.10;;;;;;;7.65;57.09;100975.87;6587466;27;32955;-89
2022/04/11 07:03:32;;;;;;;7.68;4.70;;;;;;;7.67;56.69;100980.09;6587964;27;32424;-89
2022/04/11 07:06:35;;;;;;;11.15;5.15;;;;;;;7.67;57.12;100980.09;6561023;27;32686;-89
2022/04/11 07:09:38;;;;;;;7.40;4.87;;;;;;;7.84;56.90;100981.19;6584084;27;34159;-86
2022/04/11 07:12:41;;;;;;;6.32;4.85;;;;;;;7.92;56.91;100983.13;6563185;27;33320;-88
2022/04/11 07:15:44;;;;;;;8.27;5.05;;;;;;;7.83;56.47;100976.81;6563327;27;33367;-88
2022/04/11 07:18:47;;;;;;;8.98;4.93;;;;;;;7.98;56.22;100981.69;6580164;27;33550;-88
2022/04/11 07:21:50;;;;;;;7.55;4.93;;;;;;;7.87;56.16;100974.69;6558238;27;33382;-87
2022/04/11 07:24:53;;;;;;;9.00;4.90;;;;;;;8.09;56.21;100984.22;6577403;27;35048;-88
2022/04/11 07:27:56;;;;;;;8.13;5.40;;;;;;;8.31;55.47;100972.28;6580779;27;33876;-88
2022/04/11 07:30:59;;;;;;;10.48;4.82;;;;;;;8.56;54.56;100970.75;6557967;27;33711;-87
2022/04/11 07:34:08;;;;;;;6.70;4.70;;;;;;;8.47;54.45;100966.28;6557896;27;33033;-88
2022/04/11 07:37:11;;;;;;;6.53;4.90;;;;;;;8.38;54.20;100963.50;6558237;27;32287;-88
2022/04/11 07:40:14;;;;;;;8.05;4.50;;;;;;;8.29;54.39;100969.72;6574405;27;35255;-90
2022/04/11 07:43:18;;;;;;;7.80;4.85;;;;;;;8.28;54.84;100962.69;6577120;27;34894;-92
2022/04/11 07:46:20;;;;;;;5.32;4.55;;;;;;;8.71;53.17;100968.41;6558232;27;33880;-91
2022/04/11 07:49:23;;;;;;;7.57;4.82;;;;;;;8.76;53.32;100968.78;6580830;27;34979;-90
2022/04/11 07:52:26;;;;;;;7.80;4.75;;;;;;;8.95;52.51;100963.28;6576434;27;34145;-88
2022/04/11 07:55:31;;;;;;;6.18;4.20;;;;;;;9.08;52.31;100968.28;6576964;27;34762;-87
2022/04/11 07:58:34;;;;;;;6.80;5.37;;;;;;;9.22;51.87;100974.97;6559619;27;31807;-88
2022/04/11 08:01:37;;;;;;;5.82;4.00;;;;;;;9.13;51.66;100971.34;6586980;27;34080;-86
2022/04/11 08:04:40;;;;;;;6.85;4.43;;;;;;;9.18;52.23;100971.72;6585052;27;35181;-87
2022/04/11 08:07:42;;;;;;;5.37;4.22;;;;;;;9.46;51.32;100968.94;6576831;27;34446;-88
2022/04/11 08:10:45;;;;;;;6.15;4.10;;;;;;;9.60;50.82;100967.53;6577503;27;34755;-87
2022/04/11 08:13:48;;;;;;;4.70;3.70;;;;;;;9.55;50.75;100968.00;6580043;27;34879;-87
2022/04/11 08:16:51;;;;;;;5.82;3.95;;;;;;;9.50;50.02;100967.62;6578961;27;34071;-87
2022/04/11 08:19:54;;;;;;;5.15;4.07;;;;;;;9.61;48.91;100966.53;6558130;27;32474;-86
2022/04/11 08:22:56;;;;;;;4.35;3.75;;;;;;;9.65;48.10;100974.12;6578628;27;34100;-89
2022/04/11 08:25:59;;;;;;;8.10;3.50;;;;;;;9.33;48.71;100972.03;6565177;27;32385;-86
2022/04/11 08:29:03;;;;;;;4.78;3.60;;;;;;;9.57;48.83;100966.00;6584963;27;35461;-86
2022/04/11 08:32:06;;;;;;;7.07;3.85;;;;;;;9.81;47.70;100962.63;6562066;27;33602;-87
2022/04/11 08:35:09;;;;;;;6.22;4.03;;;;;;;9.92;47.41;100969.59;6580170;27;34046;-86
2022/04/11 08:38:12;;;;;;;7.85;3.58;;;;;;;9.93;46.71;100963.22;6560045;27;32401;-86
2022/04/11 08:41:17;;;;;;;5.03;3.85;;;;;;;9.89;46.22;100959.16;6558840;27;33833;-87
2022/04/11 08:44:20;;;;;;;4.25;3.33;;;;;;;10.06;45.96;100957.38;6558443;27;33695;-85
2022/04/11 08:47:23;;;;;;;4.00;3.60;;;;;;;10.10;46.56;100956.91;6580158;27;35166;-87
2022/04/11 08:50:27;;;;;;;5.53;3.53;;;;;;;10.22;45.80;100954.78;6580103;27;33944;-88
2022/04/11 08:53:31;;;;;;;4.97;3.67;;;;;;;10.36;45.54;100951.50;6581385;27;34020;-87
2022/04/11 08:56:34;;;;;;;4.57;3.70;;;;;;;10.45;44.98;100952.37;6561386;27;34887;-88
2022/04/11 08:59:38;;;;;;;7.30;3.80;;;;;;;10.37;45.50;100952.34;6580014;27;33772;-88
2022/04/11 09:02:42;;;;;;;6.68;3.28;;;;;;;10.47;45.67;100958.47;6580357;27;33925;-88
2022/04/11 09:06:06;;;;;;;4.35;3.03;;;;;;;10.50;44.74;100957.25;6563086;27;33601;-88
2022/04/11 09:09:10;;;;;;;4.00;3.30;;;;;;;10.48;44.40;100954.75;6583957;27;34172;-87
2022/04/11 09:12:16;;;;;;;2.87;2.67;;;;;;;10.48;44.50;100968.22;6581011;27;34674;-87
2022/04/11 09:15:20;;;;;;;6.28;3.42;;;;;;;10.54;43.69;100962.16;6580530;27;34539;-87
2022/04/11 09:18:53;;;;;;;5.35;3.37;;;;;;;10.83;43.85;100953.66;6579726;27;34665;-88
2022/04/11 09:21:56;;;;;;;3.70;3.05;;;;;;;10.99;43.20;100952.84;6580594;27;35240;-88
2022/04/11 09:25:08;;;;;;;5.40;3.30;;;;;;;11.02;42.75;100957.91;6580616;26;36714;-89
2022/04/11 09:28:12;;;;;;;3.40;3.08;;;;;;;11.10;41.68;100954.38;6580903;27;33801;-88
2022/04/11 09:31:21;;;;;;;3.72;3.20;;;;;;;10.98;42.36;100950.31;6580278;27;35605;-88
2022/04/11 09:34:27;;;;;;;4.10;3.28;;;;;;;10.90;42.23;100954.69;6581007;27;34413;-87
2022/04/11 09:37:30;;;;;;;4.78;3.35;;;;;;;10.73;42.13;100955.66;6559667;27;32426;-88
2022/04/11 09:40:42;;;;;;;5.47;4.22;;;;;;;10.74;41.88;100967.28;6582678;27;33841;-87
2022/04/11 09:43:45;;;;;;;4.43;3.12;;;;;;;10.65;43.77;100953.78;6584300;27;34077;-88
2022/04/11 09:46:49;;;;;;;3.85;3.30;;;;;;;10.70;42.81;100945.22;6580794;27;32458;-88
2022/04/11 09:49:52;;;;;;;5.47;3.37;;;;;;;10.87;42.39;100943.41;6566327;27;33277;-88
2022/04/11 09:53:17;;;;;;;5.03;3.30;;;;;;;11.30;41.62;100942.25;6568208;27;33780;-88
2022/04/11 09:56:22;;;;;;;3.85;3.40;;;;;;;11.42;41.09;100931.97;6585377;27;34901;-88
2022/04/11 09:59:26;;;;;;;5.95;3.20;;;;;;;11.25;40.35;100935.69;6587005;27;34566;-88
2022/04/11 10:02:29;;;;;;;3.80;3.40;;;;;;;11.29;40.37;100929.81;6573455;27;33194;-88
2022/04/11 10:05:34;;;;;;;5.72;3.33;;;;;;;11.76;40.20;100944.41;6573259;27;33517;-88
2022/04/11 10:08:38;;;;;;;3.72;3.30;;;;;;;11.64;39.35;100932.28;6571426;27;33048;-88
2022/04/11 10:11:42;;;;;;;3.33;3.03;;;;;;;11.56;39.98;100931.28;6561446;27;32478;-88
2022/04/11 10:14:46;;;;;;;3.33;3.03;;;;;;;11.46;39.30;100936.00;6549067;27;33628;-88
2022/04/11 10:17:50;;;;;;;3.95;3.22;;;;;;;11.64;38.20;100935.84;6575003;27;33421;-89
2022/04/11 10:21:02;;;;;;;4.00;3.22;;;;;;;11.81;38.58;100934.75;6580092;27;33761;-86
2022/04/11 10:24:34;;;;;;;3.33;3.03;;;;;;;11.79;39.72;100934.12;6586320;27;34176;-86
2022/04/11 10:27:39;;;;;;;3.62;2.90;;;;;;;12.10;37.89;100925.28;6583513;27;34216;-89
2022/04/11 10:30:43;;;;;;;3.35;3.05;;;;;;;12.43;36.55;100926.00;6565437;27;32285;-90
2022/04/11 10:33:52;;;;;;;6.75;3.25;;;;;;;12.48;37.18;100939.78;6585779;27;33965;-89
2022/04/11 10:36:56;;;;;;;3.13;2.93;;;;;;;12.71;36.62;100926.31;6582003;27;33454;-88
2022/04/11 10:40:30;;;;;;;3.42;3.12;;;;;;;12.93;36.48;100926.53;6563929;27;33078;-88
2022/04/11 10:43:33;;;;;;;3.35;3.05;;;;;;;13.32;35.90;100923.72;6556842;27;33006;-88
2022/04/11 10:47:10;;;;;;;4.03;3.33;;;;;;;12.91;35.96;100921.28;6560508;27;33781;-88
2022/04/11 10:50:16;;;;;;;3.92;3.60;;;;;;;13.06;35.73;100924.06;6567353;27;33710;-88
2022/04/11 10:53:25;;;;;;;3.67;3.20;;;;;;;13.93;35.73;100920.91;6595836;27;33771;-88
2022/04/11 10:56:52;;;;;;;3.55;3.25;;;;;;;14.16;33.46;100915.41;6585182;27;34248;-88
2022/04/11 11:00:15;;;;;;;3.87;3.10;;;;;;;13.91;34.37;100909.41;6579041;27;35087;-88
2022/04/11 11:03:18;;;;;;;4.87;3.45;;;;;;;12.71;35.95;100925.47;6555902;27;32813;-88
2022/04/11 11:06:41;;;;;;;3.03;2.72;;;;;;;13.43;35.46;100916.19;6558178;27;33912;-89
2022/04/11 11:09:54;;;;;;;3.70;2.53;;;;;;;14.07;33.61;100909.25;6549651;27;32839;-89
2022/04/11 11:13:30;;;;;;;2.25;2.10;;;;;;;14.64;32.44;100904.13;6558905;26;32890;-88
2022/04/11 11:16:35;;;;;;;4.55;2.85;;;;;;;14.83;31.11;100908.06;6606394;26;34269;-88
2022/04/11 11:20:03;;;;;;;6.03;2.95;;;;;;;15.88;32.14;100896.41;6586391;27;32272;-88
2022/04/11 11:23:25;;;;;;;2.70;2.50;;;;;;;16.37;29.52;100897.28;6586219;27;33421;-88
2022/04/11 11:26:48;;;;;;;6.62;2.85;;;;;;;15.93;30.07;100896.66;6606921;26;35013;-88
2022/04/11 11:29:52;;;;;;;7.20;3.17;;;;;;;14.83;31.52;100900.78;6585888;27;34579;-88
2022/04/11 11:33:00;;;;;;;3.03;2.70;;;;;;;13.57;35.11;100902.69;6587769;27;32611;-88
2022/04/11 11:36:04;;;;;;;4.15;3.05;;;;;;;13.83;33.67;100904.09;6607608;27;34111;-88
2022/04/11 11:39:21;;;;;;;5.40;3.20;;;;;;;13.48;33.30;100901.06;6607634;27;34228;-88
2022/04/11 11:42:25;;;;;;;3.70;2.95;;;;;;;13.61;34.34;100897.75;6607365;27;35101;-91
2022/04/11 11:45:29;;;;;;;3.58;2.42;;;;;;;15.80;34.41;100886.56;6585856;27;33944;-92
2022/04/11 11:48:33;;;;;;;3.83;2.67;;;;;;;18.55;26.88;100873.75;6586062;27;33607;-91
2022/04/11 11:51:36;;;;;;;3.95;2.42;;;;;;;20.72;25.04;100883.88;6605927;27;34910;-88
2022/04/11 11:54:42;;;;;;;2.90;2.50;;;;;;;21.00;23.95;100875.84;6586807;27;32677;-89
2022/04/11 11:57:45;;;;;;;3.67;2.30;;;;;;;21.72;21.14;100877.59;6615087;27;34774;-88
2022/04/11 12:00:49;;;;;;;2.65;2.40;;;;;;;22.06;21.37;100864.91;6568279;26;32870;-89
2022/04/11 12:07:18;;;;;;;3.60;2.62;;;;;;;22.70;21.24;100856.59;6604391;27;34591;-87
2022/04/11 12:10:22;;;;;;;3.40;2.72;;;;;;;19.40;23.21;100867.91;6586075;27;33756;-87
2022/04/11 12:13:34;;;;;;;3.47;2.95;;;;;;;17.29;27.34;100874.06;6585861;27;32595;-87
2022/04/11 12:16:54;;;;;;;4.80;2.60;;;;;;;15.16;29.22;100881.28;6607348;27;33837;-86
2022/04/11 12:20:09;;;;;;;4.05;2.50;;;;;;;14.83;29.90;100881.81;6607073;27;35494;-86
2022/04/11 12:23:14;;;;;;;3.03;2.60;;;;;;;14.45;30.45;100875.72;6608335;27;34254;-86
2022/04/11 12:26:30;;;;;;;5.32;2.90;;;;;;;14.23;30.14;100875.69;6613544;27;34517;-88
2022/04/11 12:29:41;;;;;;;3.08;2.55;;;;;;;14.12;30.62;100872.62;6587133;27;33245;-88
2022/04/11 12:32:44;;;;;;;3.00;2.80;;;;;;;15.61;28.11;100869.06;6607738;27;34069;-88
2022/04/11 12:36:07;;;;;;;6.47;2.90;;;;;;;18.09;24.90;100851.09;6607951;27;34974;-89
2022/04/11 12:39:11;;;;;;;3.83;2.37;;;;;;;18.75;23.75;100849.94;6611057;27;35454;-91
2022/04/11 12:42:20;;;;;;;2.83;2.50;;;;;;;19.23;23.46;100840.31;6609138;27;35331;-91
2022/04/11 12:45:22;;;;;;;4.97;2.92;;;;;;;21.36;21.36;100846.63;6608188;27;33977;-89
2022/04/11 12:48:25;;;;;;;5.30;2.83;;;;;;;19.56;22.55;100842.72;6587930;27;33428;-89
2022/04/11 12:51:31;;;;;;;3.80;3.20;;;;;;;20.79;22.88;100840.78;6595495;26;32654;-89
2022/04/11 12:54:45;;;;;;;4.18;2.50;;;;;;;20.89;21.48;100837.50;6603787;26;33664;-89
2022/04/11 12:57:59;;;;;;;2.85;2.58;;;;;;;21.15;21.63;100830.75;6607812;27;34839;-87
2022/04/11 13:01:02;;;;;;;4.18;2.53;;;;;;;20.53;21.27;100834.69;6607868;27;33613;-87
2022/04/11 13:04:05;;;;;;;3.00;2.28;;;;;;;20.55;21.94;100837.16;6607056;27;33838;-87
2022/04/11 13:07:10;;;;;;;3.90;2.55;;;;;;;19.59;22.83;100827.78;6586898;27;32816;-87
2022/04/11 13:10:13;;;;;;;4.18;2.28;;;;;;;19.70;21.35;100827.06;6608064;27;33965;-87
2022/04/11 13:13:17;;;;;;;5.40;2.30;;;;;;;19.19;22.45;100830.91;6608245;26;34041;-87
2022/04/11 13:19:41;;;;;;;2.53;2.33;;;;;;;16.93;22.92;100813.56;6588088;27;32492;-87
2022/04/11 13:22:44;;;;;;;2.47;2.28;;;;;;;16.11;25.06;100820.06;6607493;27;34757;-87
2022/04/11 13:25:47;;;;;;;4.22;2.80;;;;;;;19.07;22.35;100814.44;6605839;27;34284;-88
2022/04/11 13:28:57;;;;;;;3.40;2.47;;;;;;;21.93;19.19;100811.16;6606175;27;33982;-87
2022/04/11 13:32:01;;;;;;;3.45;2.80;;;;;;;21.84;19.89;100820.84;6606266;27;34137;-88
2022/04/11 13:35:04;;;;;;;3.87;2.60;;;;;;;19.39;22.48;100815.19;6587326;27;34693;-87
2022/04/11 13:38:07;;;;;;;4.12;2.42;;;;;;;17.36;24.72;100820.47;6607499;26;34796;-88
2022/04/11 13:41:10;;;;;;;5.75;2.50;;;;;;;19.07;22.86;100811.72;6586456;27;34492;-87
2022/04/11 13:44:15;;;;;;;4.03;2.55;;;;;;;17.39;23.88;100812.72;6615304;27;33862;-88
2022/04/11 13:47:18;;;;;;;4.22;2.50;;;;;;;18.52;23.53;100804.09;6607656;27;34950;-87
2022/04/11 13:50:22;;;;;;;4.20;2.30;;;;;;;22.04;19.61;100795.75;6590500;27;34357;-88
2022/04/11 13:53:29;;;;;;;5.35;2.15;;;;;;;23.47;17.72;100798.28;6623639;27;33975;-89
2022/04/11 13:56:33;;;;;;;3.08;2.25;;;;;;;24.18;17.90;100795.63;6608989;27;34360;-88
2022/04/11 13:59:36;;;;;;;2.17;1.98;;;;;;;23.28;18.21;100785.87;6606456;27;33956;-88
2022/04/11 14:02:38;;;;;;;3.03;2.25;;;;;;;24.50;16.67;100785.78;6588207;27;32815;-88
2022/04/11 14:13:53;;;;;;;2.33;1.98;;;;;;;23.64;17.46;100776.25;6603732;26;20032;-89
2022/04/11 14:16:58;;;;;;;1.92;1.67;;;;;;;23.60;17.10;100785.25;6606855;27;33967;-88
2022/04/11 14:20:00;;;;;;;2.62;1.95;;;;;;;22.17;18.62;100789.19;6581254;26;33803;-88
2022/04/11 14:23:38;;;;;;;2.80;1.83;;;;;;;19.92;20.45;100789.19;6600766;26;34096;-88
2022/04/11 14:26:41;;;;;;;2.30;1.70;;;;;;;19.66;20.61;100788.44;6600614;26;33658;-88
2022/04/11 14:29:44;;;;;;;1.83;1.67;;;;;;;17.53;21.72;100780.84;6603363;26;34286;-88
2022/04/11 14:32:48;;;;;;;1.70;1.60;;;;;;;15.81;24.42;100785.06;6594451;26;34006;-88
2022/04/11 14:35:51;;;;;;;2.65;1.58;;;;;;;14.97;25.75;100787.88;6587940;27;32352;-88
2022/04/11 14:38:53;;;;;;;2.05;1.85;;;;;;;14.60;25.87;100787.16;6587390;27;32804;-88
2022/04/11 14:41:57;;;;;;;2.85;2.30;;;;;;;14.38;27.33;100786.25;6604778;26;34829;-87
2022/04/11 14:45:00;;;;;;;2.37;2.17;;;;;;;14.77;27.07;100782.31;6589830;27;33836;-88
2022/04/11 14:48:05;;;;;;;2.75;2.33;;;;;;;14.59;27.54;100782.75;6588000;27;32428;-87
2022/04/11 14:51:09;;;;;;;4.22;2.60;;;;;;;14.37;27.66;100783.75;6588762;27;32810;-87
2022/04/11 14:54:12;;;;;;;2.70;2.50;;;;;;;13.93;29.12;100785.56;6588328;27;32722;-88
2022/04/11 14:57:15;;;;;;;2.45;2.10;;;;;;;13.59;29.12;100787.00;6608414;26;34234;-87
2022/04/11 15:00:18;;;;;;;3.58;1.87;;;;;;;13.24;29.24;100790.41;6603128;26;34282;-87
2022/04/11 15:03:20;;;;;;;4.10;2.40;;;;;;;12.80;28.84;100778.50;6587351;27;32686;-88
2022/04/11 15:06:23;;;;;;;1.67;1.58;;;;;;;12.60;29.78;100780.84;6587808;27;33223;-87
2022/04/11 15:09:26;;;;;;;2.37;1.80;;;;;;;12.52;29.85;100780.09;6607704;26;33742;-87
2022/04/11 15:12:29;;;;;;;2.05;1.90;;;;;;;12.54;29.66;100781.59;6592910;27;32454;-87
2022/04/11 15:15:32;;;;;;;1.83;1.73;;;;;;;12.63;29.72;100783.19;6611429;26;34033;-87
2022/04/11 15:18:35;;;;;;;2.83;2.20;;;;;;;12.60;29.66;100777.31;6589849;27;32841;-87
2022/04/11 15:21:38;;;;;;;2.35;2.08;;;;;;;12.70;29.02;100781.47;6588442;27;33745;-87
2022/04/11 15:24:41;;;;;;;2.42;2.20;;;;;;;12.80;29.01;100781.19;6622922;27;35394;-87
2022/04/11 15:27:43;;;;;;;1.87;1.67;;;;;;;12.75;28.97;100777.38;6607944;26;34149;-87
2022/04/11 15:30:46;;;;;;;1.87;1.62;;;;;;;12.85;29.34;100781.50;6601133;26;34028;-87
2022/04/11 15:33:49;;;;;;;1.85;1.67;;;;;;;12.79;28.44;100776.00;6581952;27;33384;-87
2022/04/11 15:36:52;;;;;;;1.87;1.67;;;;;;;12.86;28.21;100776.94;6618421;26;34385;-88
2022/04/11 15:39:55;;;;;;;2.92;1.60;;;;;;;12.71;27.69;100776.91;6608266;27;34775;-87
2022/04/11 15:42:59;;;;;;;2.33;2.12;;;;;;;12.70;27.06;100775.22;6588034;27;33882;-87
2022/04/11 15:46:03;;;;;;;2.20;2.00;;;;;;;12.70;28.41;100759.03;6611851;26;35510;-89
2022/04/11 15:49:07;;;;;;;2.60;2.00;;;;;;;12.86;29.88;100769.66;6621756;27;35415;-87
2022/04/11 15:52:10;;;;;;;2.58;2.37;;;;;;;12.70;29.43;100764.41;6624173;26;35252;-87
2022/04/11 15:55:13;;;;;;;2.58;2.30;;;;;;;12.72;29.04;100756.94;6602065;26;33608;-89
